Savannah, GA

8:29 AM EDT on August 20, 2017 (GMT -0400)
Hunter Army Air Field | | Change Station

Elev 39 ft 32.01 °N, 81.15 °W | Updated 31 minutes ago

Partly Cloudy
Partly Cloudy
79 °F
Feels Like 79 °F
N
0
Wind Variable Wind from North

Today
High -- | Low -- °F
--% Chance of Precip.
Yesterday
High -- | Low -- °F
Precip. -- in
Pressure 30.04 in
Visibility 10.0 miles
Clouds Few 11000 ft
Dew Point 74 °F
Humidity 86%
Rainfall 0.00 in
Snow Depth Not available.
6:52 AM 8:02 PM
Waning Crescent, 2% visible
METAR KSVN 201158Z AUTO 00000KT 10SM FEW110 26/24 A3003 RMK AO2 LTG DSNT E RAE14DZB25E26DZB30E35RAB35E47 SLP172 P0000 60000 T02620236 10269 20251 53019 $
Pressure 30.04 in
Visibility 10.0 miles
Clouds Few 11000 ft
Dew Point 74 °F
Humidity 86%
Rainfall 0.00 in
Snow Depth Not available.
6:52 AM 8:02 PM
Waning Crescent, 2% visible
METAR KSVN 201158Z AUTO 00000KT 10SM FEW110 26/24 A3003 RMK AO2 LTG DSNT E RAE14DZB25E26DZB30E35RAB35E47 SLP172 P0000 60000 T02620236 10269 20251 53019 $

Get Severe Weather Alerts

Thanks for signing up!

Be on the lookout for a verification email in your inbox.

You'll start receiving the daily forecast at 6 AM.

×

10-Day Weather Forecast

Almanac

Astronomy

Aug. 20, 2017 Rise Set
Actual Time
Civil Twilight
Nautical Twilight
Astronomical Twilight
Moon
Length of Visible Light
Length of Day
Tomorrow will be .
, % of the Moon is Illuminated

Today's Extremes

State Highs State Lows

Community

WunderPhotos

Category 6

Welcome to Category 6. This is the collective home for Weather Underground's featured writeups by Dr. Jeff Masters (right), Bob Henson (left), Chris Burt, and other regular contributors.

Nearby

Air Quality

  Air Quality AQ Index Pollutant
Not available.

Snow Depth

Station Depth Elevation

Earthquake Activity

City Distance Mag. Time & Date
Minimum magnitude displayed is 2.5.

Coastal Water Temperatures

Place Temperature

Stations

Nearby Weather Stations

Station Location Temp. Windchill Dew Point Humidity Wind Precip. Elev Updated Type
                   

Watches & Warnings

There are currently no watches in effect.